Terminal Aerodrome Forecast
Issued by NWS

Current Version | Previous Version | Graphics & Text | Print | Product List | Glossary On
Versions: 1 2 3 4 5 6 7 8 9 10 11 12 13 14 15 16 17 18 19 20 21 22 23 24 25 26 27 28 29 30 31 32 33 34 35 36 37 38 39 40 41 42 43 44 45 46 47
269
FTUS41 KRNK 250520
TAFLWB
TAF
KLWB 250520Z 2506/2606 19007KT P6SM SCT035
     FM251000 19007KT P6SM VCSH BKN025
     FM251200 19005KT 4SM -SHRA OVC020
      TEMPO 2512/2515 2SM TSRA OVC015CB
     FM251700 27012KT P6SM BKN040
     FM252000 28012G22KT P6SM SCT045
     FM260100 29014G26KT P6SM BKN045=

USA.gov is the U.S. government's official web portal to all federal, state and local government web resources and services.